createdAt,value
2023-12-02T00:00:36.630Z,31.55
2023-12-02T00:03:03.610Z,32.10
2023-12-02T00:05:30.445Z,33.17
2023-12-02T00:07:57.351Z,27.45
2023-12-02T00:10:24.203Z,25.80
2023-12-02T00:12:51.180Z,28.42
2023-12-02T00:15:18.042Z,28.92
2023-12-02T00:17:45.149Z,29.60
2023-12-02T00:20:12.523Z,31.70
2023-12-02T00:22:39.421Z,27.00
2023-12-02T00:25:06.466Z,26.58
2023-12-02T00:27:33.275Z,24.27
2023-12-02T00:30:00.563Z,29.27
2023-12-02T00:32:29.579Z,26.08
2023-12-02T00:34:58.457Z,26.38
2023-12-02T00:37:25.736Z,26.80
2023-12-02T00:39:52.640Z,23.60
2023-12-02T00:42:19.496Z,25.13
2023-12-02T00:44:46.293Z,24.13
2023-12-02T00:47:13.194Z,27.65
2023-12-02T00:49:40.145Z,26.58
2023-12-02T00:52:07.001Z,27.58
2023-12-02T00:54:36.195Z,25.13
2023-12-02T00:57:03.714Z,23.17
2023-12-02T00:59:30.717Z,27.40
2023-12-02T01:01:57.515Z,24.90
2023-12-02T01:04:24.434Z,25.02
2023-12-02T01:06:51.800Z,27.30
2023-12-02T01:09:18.765Z,26.85
2023-12-02T01:11:45.855Z,24.75
2023-12-02T01:14:12.684Z,25.90
2023-12-02T01:16:39.540Z,24.95
2023-12-02T01:19:06.397Z,26.30
2023-12-02T01:21:33.298Z,26.83
2023-12-02T01:24:00.323Z,26.05
2023-12-02T01:26:27.196Z,22.52
2023-12-02T01:28:54.115Z,25.83
2023-12-02T01:31:21.084Z,25.77
2023-12-02T01:33:47.986Z,25.35
2023-12-02T01:36:15.196Z,24.00
2023-12-02T01:38:42.107Z,26.58
2023-12-02T01:41:09.972Z,25.27
2023-12-02T01:43:38.964Z,22.02
2023-12-02T01:46:06.616Z,25.83
2023-12-02T01:48:35.881Z,23.35
2023-12-02T01:51:04.217Z,24.48
2023-12-02T01:53:31.316Z,21.38
2023-12-02T01:55:58.261Z,25.85
2023-12-02T01:58:25.420Z,24.20
2023-12-02T02:00:52.297Z,26.52
2023-12-02T02:03:19.133Z,25.13
2023-12-02T02:05:46.246Z,22.50
2023-12-02T02:08:13.172Z,26.17
2023-12-02T02:10:39.960Z,29.15
2023-12-02T02:13:07.074Z,26.10
2023-12-02T02:15:33.902Z,25.90
2023-12-02T02:18:00.862Z,26.35
2023-12-02T02:20:28.075Z,30.42
2023-12-02T02:22:55.005Z,28.40
2023-12-02T02:25:22.031Z,26.42
2023-12-02T02:27:48.797Z,27.15
2023-12-02T02:30:16.008Z,26.08
2023-12-02T02:32:42.924Z,29.13
2023-12-02T02:35:10.059Z,30.08
2023-12-02T02:37:36.880Z,29.05
2023-12-02T02:40:04.014Z,27.05
2023-12-02T02:42:30.890Z,25.73
2023-12-02T02:44:57.981Z,27.98
2023-12-02T02:47:24.763Z,28.83
2023-12-02T02:49:51.495Z,28.02
2023-12-02T02:52:18.897Z,32.08
2023-12-02T02:54:45.694Z,27.55
2023-12-02T02:57:12.636Z,29.27
2023-12-02T02:59:39.426Z,30.33
2023-12-02T03:02:06.261Z,27.98
2023-12-02T03:04:33.445Z,29.98
2023-12-02T03:07:00.382Z,24.92
2023-12-02T03:09:27.344Z,32.13
2023-12-02T03:11:54.370Z,26.85
2023-12-02T03:14:21.244Z,30.13
2023-12-02T03:16:48.156Z,29.77
2023-12-02T03:19:15.647Z,29.50
2023-12-02T03:21:42.422Z,31.15
2023-12-02T03:24:09.426Z,30.27
2023-12-02T03:26:37.723Z,29.00
2023-12-02T03:29:07.710Z,30.13
2023-12-02T03:31:34.955Z,28.33
2023-12-02T03:34:01.882Z,29.98
2023-12-02T03:36:28.963Z,29.50
2023-12-02T03:38:55.851Z,29.90
2023-12-02T03:41:22.774Z,30.98
2023-12-02T03:43:55.569Z,32.38
2023-12-02T03:46:29.542Z,30.98
2023-12-02T03:48:57.180Z,28.52
2023-12-02T03:51:24.732Z,30.17
2023-12-02T03:53:51.638Z,28.60
2023-12-02T03:56:18.536Z,27.73
2023-12-02T03:58:46.513Z,30.50
2023-12-02T04:01:13.757Z,26.55
2023-12-02T04:03:41.014Z,29.48
2023-12-02T04:06:10.059Z,28.63
2023-12-02T04:08:36.916Z,26.55
2023-12-02T04:11:04.401Z,28.10
2023-12-02T04:13:31.870Z,26.42
2023-12-02T04:15:58.697Z,25.67
2023-12-02T04:18:25.600Z,31.13
2023-12-02T04:20:52.474Z,25.58
2023-12-02T04:23:19.483Z,25.98
2023-12-02T04:25:46.277Z,25.08
2023-12-02T04:28:13.772Z,24.83
2023-12-02T04:30:40.612Z,24.90
2023-12-02T04:33:07.816Z,26.20
2023-12-02T04:35:36.257Z,26.95
2023-12-02T04:38:05.726Z,24.88
2023-12-02T04:40:33.687Z,24.08
2023-12-02T04:43:00.524Z,23.27
2023-12-02T04:45:30.051Z,24.10
2023-12-02T04:47:58.886Z,20.83
2023-12-02T04:50:25.812Z,21.08
2023-12-02T04:52:52.738Z,25.58
2023-12-02T04:55:19.546Z,23.15
2023-12-02T04:57:46.906Z,21.63
2023-12-02T05:00:18.315Z,20.38
2023-12-02T05:02:45.459Z,19.38
2023-12-02T05:05:13.641Z,21.52
2023-12-02T05:07:40.889Z,22.55
2023-12-02T05:10:07.974Z,20.30
2023-12-02T05:12:34.888Z,21.70
2023-12-02T05:15:02.264Z,18.95
2023-12-02T05:17:29.242Z,19.40
2023-12-02T05:19:57.273Z,19.83
2023-12-02T05:22:24.977Z,20.25
2023-12-02T05:24:51.720Z,18.65
2023-12-02T05:27:18.530Z,19.35
2023-12-02T05:29:45.900Z,19.13
2023-12-02T05:32:12.967Z,18.98
2023-12-02T05:34:40.002Z,20.13
2023-12-02T05:37:07.807Z,20.48
2023-12-02T05:39:36.411Z,20.83
2023-12-02T05:42:03.491Z,18.48
2023-12-02T05:44:30.378Z,19.45
2023-12-02T05:46:57.132Z,21.45
2023-12-02T05:49:23.970Z,20.08
2023-12-02T05:51:50.849Z,18.73
2023-12-02T05:54:17.743Z,18.90
2023-12-02T05:56:44.554Z,17.35
2023-12-02T05:59:11.942Z,19.48
2023-12-02T06:01:38.715Z,18.40
2023-12-02T06:04:05.696Z,19.30
2023-12-02T06:06:32.653Z,19.75
2023-12-02T06:08:59.593Z,17.83
2023-12-02T06:11:26.367Z,19.83
2023-12-02T06:13:53.397Z,17.23
2023-12-02T06:16:20.309Z,16.38
2023-12-02T06:18:47.242Z,20.00
2023-12-02T06:21:14.223Z,18.63
2023-12-02T06:23:41.183Z,17.98
2023-12-02T06:26:08.321Z,18.40
2023-12-02T06:28:35.131Z,18.67
2023-12-02T06:31:01.880Z,20.25
2023-12-02T06:33:28.748Z,19.92
2023-12-02T06:35:55.701Z,18.83
2023-12-02T06:38:23.214Z,17.50
2023-12-02T06:40:50.185Z,18.13
2023-12-02T06:43:17.463Z,19.13
2023-12-02T06:45:44.287Z,19.95
2023-12-02T06:48:11.216Z,18.60
2023-12-02T06:50:38.544Z,17.95
2023-12-02T06:53:05.624Z,18.10
2023-12-02T06:55:32.935Z,20.20
2023-12-02T06:58:00.391Z,17.35
2023-12-02T07:00:27.355Z,19.27
2023-12-02T07:02:54.370Z,19.77
2023-12-02T07:05:21.355Z,17.13
2023-12-02T07:07:48.389Z,18.65
2023-12-02T07:10:15.652Z,18.38
2023-12-02T07:12:42.736Z,18.65
2023-12-02T07:15:09.966Z,20.10
2023-12-02T07:17:37.149Z,17.15
2023-12-02T07:20:04.447Z,17.38
2023-12-02T07:22:31.284Z,18.50
2023-12-02T07:24:58.138Z,18.13
2023-12-02T07:27:28.197Z,17.92
2023-12-02T07:32:26.915Z,16.30
2023-12-02T07:34:53.828Z,18.30
2023-12-02T07:37:20.681Z,19.67
2023-12-02T07:39:47.657Z,17.38
2023-12-02T07:42:14.690Z,19.10
2023-12-02T07:44:41.540Z,18.58
2023-12-02T07:47:08.440Z,16.90
2023-12-02T07:49:35.904Z,16.73
2023-12-02T07:52:02.984Z,17.95
2023-12-02T07:54:29.838Z,15.65
2023-12-02T07:56:56.550Z,17.13
2023-12-02T07:59:23.876Z,18.83
2023-12-02T08:01:51.370Z,18.05
2023-12-02T08:04:18.328Z,17.10
2023-12-02T08:06:45.174Z,15.32
2023-12-02T08:09:16.243Z,15.73
2023-12-02T08:11:43.363Z,17.60
2023-12-02T08:14:10.336Z,15.85
2023-12-02T08:16:37.201Z,16.35
2023-12-02T08:19:04.079Z,17.33
2023-12-02T08:21:31.173Z,17.17
2023-12-02T08:23:58.126Z,16.40
2023-12-02T08:26:26.284Z,14.73
2023-12-02T08:28:53.088Z,15.50
2023-12-02T08:31:20.399Z,14.30
2023-12-02T08:33:47.411Z,13.88
2023-12-02T08:36:14.256Z,13.23
2023-12-02T08:38:53.499Z,13.88
2023-12-02T08:41:20.420Z,12.43
2023-12-02T08:43:47.223Z,12.48
2023-12-02T08:46:20.681Z,12.57
2023-12-02T08:48:47.948Z,10.98
2023-12-02T08:51:15.242Z,11.75
2023-12-02T08:53:41.992Z,11.88
2023-12-02T08:56:09.879Z,11.57
2023-12-02T08:58:36.995Z,12.52
2023-12-02T09:01:04.990Z,10.25
2023-12-02T09:03:31.804Z,10.63
2023-12-02T09:05:58.680Z,9.32
2023-12-02T09:08:25.623Z,9.55
2023-12-02T09:10:52.485Z,10.10
2023-12-02T09:13:41.020Z,11.23
2023-12-02T09:16:13.205Z,11.23
2023-12-02T09:18:39.987Z,10.15
2023-12-02T09:21:30.941Z,8.88
2023-12-02T09:24:02.161Z,9.53
2023-12-02T09:26:37.672Z,9.95
2023-12-02T09:29:04.531Z,9.00
2023-12-02T09:31:32.783Z,9.27
2023-12-02T09:34:04.503Z,9.70
2023-12-02T09:36:43.320Z,9.88
2023-12-02T09:41:52.898Z,8.85
2023-12-02T09:44:49.476Z,8.55
2023-12-02T09:47:21.687Z,8.80
2023-12-02T09:50:07.474Z,10.15
2023-12-02T09:52:56.247Z,9.65
2023-12-02T09:55:45.153Z,8.45
2023-12-02T09:58:20.822Z,9.38
2023-12-02T10:01:05.665Z,9.52
2023-12-02T10:03:48.409Z,9.20
2023-12-02T10:06:18.242Z,8.60
2023-12-02T10:09:10.541Z,10.07
2023-12-02T10:11:57.504Z,10.93
2023-12-02T10:14:28.420Z,9.45
2023-12-02T10:16:55.727Z,9.88
2023-12-02T10:19:31.519Z,8.95
2023-12-02T10:22:03.902Z,9.65
2023-12-02T10:24:41.166Z,8.52
2023-12-02T10:27:15.776Z,10.07
2023-12-02T10:30:01.642Z,10.07
2023-12-02T10:32:44.741Z,10.82
2023-12-02T10:35:18.581Z,11.10
2023-12-02T10:37:45.816Z,11.80
2023-12-02T10:40:15.368Z,11.30
2023-12-02T10:45:49.187Z,11.57
2023-12-02T10:48:20.024Z,12.52
2023-12-02T10:50:49.157Z,9.65
2023-12-02T10:53:20.810Z,11.70
2023-12-02T10:58:20.869Z,9.85
2023-12-02T11:00:57.352Z,12.07
2023-12-02T11:03:38.720Z,8.60
2023-12-02T11:06:10.317Z,11.25
2023-12-02T11:11:47.196Z,9.88
2023-12-02T11:14:18.407Z,11.35
2023-12-02T11:17:11.124Z,10.73
2023-12-02T11:19:48.789Z,11.95
2023-12-02T11:22:59.589Z,15.07
2023-12-02T11:25:41.624Z,12.48
2023-12-02T11:28:37.859Z,13.30
2023-12-02T11:31:37.859Z,13.35
2023-12-02T11:34:30.509Z,12.45
2023-12-02T11:37:29.185Z,11.38
2023-12-02T11:40:20.741Z,10.63
2023-12-02T11:43:16.489Z,12.00
2023-12-02T11:45:54.757Z,10.07
2023-12-02T11:48:27.456Z,12.30
2023-12-02T11:51:25.438Z,10.63
2023-12-02T11:54:08.754Z,11.23
2023-12-02T11:56:36.512Z,9.15
2023-12-02T11:59:16.907Z,7.78
2023-12-02T12:02:04.758Z,9.18
2023-12-02T12:04:37.321Z,8.45
2023-12-02T12:07:09.975Z,8.85
2023-12-02T12:09:39.501Z,9.52
2023-12-02T12:12:08.569Z,8.05
2023-12-02T12:14:38.781Z,8.15
2023-12-02T12:17:05.993Z,11.05
2023-12-02T12:19:33.023Z,7.82
2023-12-02T12:22:00.006Z,7.88
2023-12-02T12:24:27.958Z,7.03
2023-12-02T12:26:54.788Z,9.55
2023-12-02T12:29:21.641Z,9.20
2023-12-02T12:31:48.469Z,8.68
2023-12-02T12:34:16.257Z,8.90
2023-12-02T12:36:44.806Z,10.45
2023-12-02T12:39:14.037Z,10.23
2023-12-02T12:41:40.997Z,8.85
2023-12-02T12:44:08.788Z,9.10
2023-12-02T12:46:35.775Z,8.93
2023-12-02T12:49:08.273Z,9.38
2023-12-02T12:51:38.548Z,8.15
2023-12-02T12:54:07.126Z,9.15
2023-12-02T12:56:43.134Z,8.63
2023-12-02T12:59:13.723Z,7.85
2023-12-02T13:02:15.266Z,9.23
2023-12-02T13:04:42.071Z,7.90
2023-12-02T13:07:13.251Z,10.68
2023-12-02T13:12:18.061Z,8.15
2023-12-02T13:14:50.881Z,10.18
2023-12-02T13:17:21.575Z,8.73
2023-12-02T13:19:49.253Z,12.40
2023-12-02T13:22:17.979Z,13.27
2023-12-02T13:25:12.642Z,13.63
2023-12-02T13:27:50.771Z,14.75
2023-12-02T13:30:17.743Z,14.30
2023-12-02T13:32:47.757Z,13.75
2023-12-02T13:35:16.609Z,14.45
2023-12-02T13:38:24.530Z,12.80
2023-12-02T13:41:12.359Z,13.30
2023-12-02T13:43:57.398Z,12.02
2023-12-02T13:47:08.941Z,10.77
2023-12-02T13:49:40.591Z,20.30
2023-12-02T13:52:18.285Z,12.25
2023-12-02T13:55:16.058Z,13.57
2023-12-02T13:58:04.729Z,12.30
2023-12-02T14:01:01.172Z,14.23
2023-12-02T14:03:47.664Z,12.32
2023-12-02T14:06:20.911Z,12.52
2023-12-02T14:08:56.811Z,13.50
2023-12-02T14:11:53.744Z,12.52
2023-12-02T14:15:14.373Z,11.32
2023-12-02T14:18:29.827Z,12.00
2023-12-02T14:21:08.891Z,13.80
2023-12-02T14:23:51.077Z,13.38
2023-12-02T14:26:29.972Z,12.88
2023-12-02T14:29:39.067Z,12.23
2023-12-02T14:32:36.547Z,11.85
2023-12-02T14:35:21.911Z,13.27
2023-12-02T14:38:10.812Z,9.98
2023-12-02T14:40:56.357Z,10.85
2023-12-02T14:43:50.197Z,11.80
2023-12-02T14:46:17.048Z,11.25
2023-12-02T14:48:44.904Z,11.50
2023-12-02T14:51:12.942Z,10.98
2023-12-02T14:53:42.946Z,12.13
2023-12-02T14:56:43.765Z,12.70
2023-12-02T15:00:19.871Z,10.45
2023-12-02T15:02:53.012Z,10.52
2023-12-02T15:05:21.633Z,11.70
2023-12-02T15:07:54.720Z,10.52
2023-12-02T15:10:29.865Z,9.98
2023-12-02T15:13:05.756Z,11.38
2023-12-02T15:15:35.908Z,11.13
2023-12-02T15:18:08.528Z,11.40
2023-12-02T15:20:35.801Z,11.32
2023-12-02T15:23:17.623Z,9.63
2023-12-02T15:28:15.975Z,10.15
2023-12-02T15:30:43.026Z,12.95
2023-12-02T15:33:16.886Z,10.13
2023-12-02T15:35:47.299Z,12.55
2023-12-02T15:38:14.162Z,10.25
2023-12-02T15:40:40.981Z,11.10
2023-12-02T15:43:09.173Z,10.32
2023-12-02T15:45:36.305Z,10.27
2023-12-02T15:48:03.214Z,9.73
2023-12-02T15:50:31.029Z,10.13
2023-12-02T15:52:57.909Z,11.32
2023-12-02T15:55:24.872Z,11.75
2023-12-02T15:57:51.715Z,11.18
2023-12-02T16:00:18.654Z,12.60
2023-12-02T16:02:48.693Z,11.07
2023-12-02T16:05:15.798Z,12.05
2023-12-02T16:07:43.384Z,12.95
2023-12-02T16:10:14.201Z,11.02
2023-12-02T16:12:46.461Z,9.93
2023-12-02T16:15:13.571Z,12.00
2023-12-02T16:17:41.520Z,10.82
2023-12-02T16:20:11.901Z,10.75
2023-12-02T16:22:39.157Z,10.63
2023-12-02T16:25:09.604Z,11.32
2023-12-02T16:27:37.528Z,10.57
2023-12-02T16:30:04.887Z,10.60
2023-12-02T16:32:31.886Z,12.32
2023-12-02T16:34:58.862Z,10.02
2023-12-02T16:37:25.848Z,10.63
2023-12-02T16:39:52.928Z,11.20
2023-12-02T16:42:19.804Z,11.35
2023-12-02T16:44:46.527Z,10.88
2023-12-02T16:47:42.129Z,11.85
2023-12-02T16:50:17.457Z,11.35
2023-12-02T16:52:55.996Z,11.77
2023-12-02T16:55:28.894Z,10.55
2023-12-02T16:57:57.245Z,12.00
2023-12-02T17:00:50.659Z,11.80
2023-12-02T17:03:37.868Z,10.15
2023-12-02T17:06:10.572Z,9.95
2023-12-02T17:08:39.097Z,9.57
2023-12-02T17:11:14.950Z,10.30
2023-12-02T17:14:07.015Z,10.93
2023-12-02T17:16:34.180Z,10.30
2023-12-02T17:19:16.697Z,10.27
2023-12-02T17:22:02.963Z,10.95
2023-12-02T17:24:42.221Z,10.82
2023-12-02T17:27:31.835Z,12.15
2023-12-02T17:29:58.699Z,9.95
2023-12-02T17:32:25.402Z,13.07
2023-12-02T17:34:52.106Z,11.15
2023-12-02T17:37:19.017Z,10.90
2023-12-02T17:39:46.040Z,11.52
2023-12-02T17:42:15.901Z,11.05
2023-12-02T17:44:43.007Z,11.88
2023-12-02T17:47:09.873Z,10.77
2023-12-02T17:49:37.661Z,10.68
2023-12-02T17:52:05.953Z,11.20
2023-12-02T17:54:32.787Z,11.10
2023-12-02T17:56:59.503Z,10.20
2023-12-02T17:59:26.355Z,9.65
2023-12-02T18:01:53.216Z,10.43
2023-12-02T18:04:20.021Z,11.48
2023-12-02T18:06:47.382Z,10.10
2023-12-02T18:09:14.740Z,9.73
2023-12-02T18:11:41.577Z,9.32
2023-12-02T18:14:08.374Z,11.00
2023-12-02T18:16:35.137Z,11.43
2023-12-02T18:19:02.003Z,10.02
2023-12-02T18:21:32.281Z,10.65
2023-12-02T18:23:59.233Z,12.02
2023-12-02T18:26:26.112Z,10.80
2023-12-02T18:28:52.984Z,10.40
2023-12-02T18:31:19.729Z,10.95
2023-12-02T18:33:46.740Z,11.88
2023-12-02T18:36:13.657Z,9.85
2023-12-02T18:38:40.396Z,11.75
2023-12-02T18:41:09.006Z,9.27
2023-12-02T18:43:35.721Z,10.32
2023-12-02T18:46:03.200Z,10.40
2023-12-02T18:48:30.081Z,11.13
2023-12-02T18:50:56.796Z,9.75
2023-12-02T18:53:25.365Z,8.52
2023-12-02T18:55:52.647Z,9.48
2023-12-02T18:58:20.943Z,9.55
2023-12-02T19:00:47.733Z,9.32
2023-12-02T19:03:14.767Z,9.43
2023-12-02T19:05:41.572Z,9.23
2023-12-02T19:08:08.302Z,8.77
2023-12-02T19:10:35.654Z,10.85
2023-12-02T19:13:02.373Z,10.98
2023-12-02T19:15:29.452Z,8.85
2023-12-02T19:17:56.424Z,11.88
2023-12-02T19:20:23.513Z,8.75
2023-12-02T19:22:50.225Z,11.05
2023-12-02T19:25:17.135Z,9.15
2023-12-02T19:27:46.892Z,9.50
2023-12-02T19:30:14.495Z,8.70
2023-12-02T19:32:41.319Z,9.43
2023-12-02T19:35:08.746Z,10.68
2023-12-02T19:37:35.523Z,9.50
2023-12-02T19:40:02.352Z,10.38
2023-12-02T19:42:29.367Z,10.52
2023-12-02T19:44:56.647Z,12.13
2023-12-02T19:47:23.376Z,10.25
2023-12-02T19:49:50.273Z,8.80
2023-12-02T19:52:20.395Z,9.20
2023-12-02T19:54:47.736Z,9.70
2023-12-02T19:57:14.457Z,9.32
2023-12-02T19:59:41.310Z,9.65
2023-12-02T20:02:08.617Z,8.85
2023-12-02T20:04:35.752Z,10.00
2023-12-02T20:07:02.619Z,11.00
2023-12-02T20:09:29.349Z,9.00
2023-12-02T20:11:56.142Z,9.82
2023-12-02T20:14:23.201Z,10.25
2023-12-02T20:16:51.575Z,9.45
2023-12-02T20:19:18.334Z,9.40
2023-12-02T20:21:45.093Z,8.18
2023-12-02T20:24:12.020Z,9.95
2023-12-02T20:26:39.338Z,9.85
2023-12-02T20:29:06.562Z,8.40
2023-12-02T20:31:33.311Z,7.85
2023-12-02T20:34:00.142Z,9.82
2023-12-02T20:36:27.077Z,9.50
2023-12-02T20:38:53.899Z,9.52
2023-12-02T20:41:21.141Z,9.00
2023-12-02T20:43:48.504Z,9.90
2023-12-02T20:46:15.264Z,10.30
2023-12-02T20:48:43.239Z,10.68
2023-12-02T20:51:10.739Z,9.43
2023-12-02T20:53:37.836Z,9.20
2023-12-02T20:56:05.073Z,9.65
2023-12-02T20:58:32.240Z,10.98
2023-12-02T21:00:59.140Z,9.77
2023-12-02T21:03:26.060Z,9.30
2023-12-02T21:05:52.930Z,8.32
2023-12-02T21:08:20.006Z,9.70
2023-12-02T21:10:46.965Z,9.25
2023-12-02T21:13:13.777Z,9.93
2023-12-02T21:15:43.613Z,8.25
2023-12-02T21:18:14.942Z,10.00
2023-12-02T21:20:41.962Z,9.80
2023-12-02T21:23:09.358Z,9.23
2023-12-02T21:25:36.715Z,9.35
2023-12-02T21:28:05.120Z,10.55
2023-12-02T21:30:38.158Z,10.75
2023-12-02T21:33:16.267Z,10.18
2023-12-02T21:35:57.476Z,9.57
2023-12-02T21:38:46.231Z,10.23
2023-12-02T21:41:17.204Z,9.45
2023-12-02T21:43:49.146Z,10.30
2023-12-02T21:46:24.027Z,9.27
2023-12-02T21:49:16.211Z,10.07
2023-12-02T21:51:47.597Z,10.43
2023-12-02T21:54:18.647Z,9.30
2023-12-02T21:56:52.887Z,10.93
2023-12-02T21:59:23.652Z,9.80
2023-12-02T22:01:52.718Z,10.32
2023-12-02T22:04:21.180Z,10.13
2023-12-02T22:06:52.009Z,10.38
2023-12-02T22:09:28.176Z,10.63
2023-12-02T22:11:57.191Z,12.20
2023-12-02T22:14:25.903Z,11.25
2023-12-02T22:17:05.438Z,11.10
2023-12-02T22:19:35.997Z,11.57
2023-12-02T22:22:07.281Z,10.80
2023-12-02T22:24:40.783Z,10.90
2023-12-02T22:27:11.905Z,13.95
2023-12-02T22:29:43.647Z,12.13
2023-12-02T22:32:24.843Z,12.68
2023-12-02T22:34:51.925Z,11.55
2023-12-02T22:37:19.440Z,12.52
2023-12-02T22:39:46.230Z,12.95
2023-12-02T22:42:13.662Z,13.77
2023-12-02T22:44:40.465Z,11.45
2023-12-02T22:47:11.727Z,13.60
2023-12-02T22:49:40.124Z,16.05
2023-12-02T22:52:11.085Z,11.88
2023-12-02T22:54:41.059Z,13.90
2023-12-02T22:57:13.468Z,14.48
2023-12-02T22:59:40.941Z,13.45
2023-12-02T23:02:12.659Z,13.90
2023-12-02T23:04:44.272Z,15.63
2023-12-02T23:09:55.550Z,15.05
2023-12-02T23:12:36.585Z,13.35
2023-12-02T23:15:37.937Z,13.38
2023-12-02T23:18:10.998Z,13.97
2023-12-02T23:20:38.848Z,15.43
2023-12-02T23:23:05.709Z,13.93
2023-12-02T23:25:32.682Z,14.48
2023-12-02T23:28:02.063Z,16.23
2023-12-02T23:30:29.200Z,13.68
2023-12-02T23:32:56.532Z,13.68
2023-12-02T23:35:25.751Z,14.90
2023-12-02T23:37:54.327Z,16.48
2023-12-02T23:40:29.836Z,16.05
2023-12-02T23:42:58.244Z,14.98
2023-12-02T23:45:25.335Z,16.38
2023-12-02T23:47:52.950Z,17.80
2023-12-02T23:50:20.932Z,18.52
2023-12-02T23:52:48.845Z,16.13
2023-12-02T23:55:16.132Z,18.67
2023-12-02T23:57:44.406Z,17.30
